Time;durP1;ratioP1;P1;durP2;ratioP2;P2;SDS_P1;SDS_P2;PMS_P1;PMS_P2;Temp;Humidity;BMP_temperature;BMP_pressure;BME280_temperature;BME280_humidity;BME280_pressure;Samples;Min_cycle;Max_cycle;Signal;HPM_P1;HPM_P2
2023/08/05 00:00:57;;;;;;;7.63;2.80;;;;;;;;;;5045120;28;20107;-66
2023/08/05 00:03:23;;;;;;;9.02;3.63;;;;;;;;;;5043527;28;20700;-66
2023/08/05 00:05:49;;;;;;;7.20;2.97;;;;;;;;;;5041903;28;20085;-67
2023/08/05 00:08:16;;;;;;;9.40;3.55;;;;;;;;;;5043387;28;20035;-66
2023/08/05 00:10:42;;;;;;;5.65;2.80;;;;;;;;;;5041790;28;20032;-66
2023/08/05 00:13:09;;;;;;;9.07;3.72;;;;;;;;;;5042895;28;20097;-66
2023/08/05 00:15:35;;;;;;;7.75;3.30;;;;;;;;;;5044641;28;20033;-66
2023/08/05 00:18:01;;;;;;;8.30;3.45;;;;;;;;;;5044304;28;20457;-66
2023/08/05 00:20:27;;;;;;;10.60;4.00;;;;;;;;;;5043808;28;20034;-66
2023/08/05 00:22:53;;;;;;;7.03;3.30;;;;;;;;;;5044881;28;20020;-66
2023/08/05 00:25:19;;;;;;;7.40;3.55;;;;;;;;;;5044610;28;20055;-66
2023/08/05 00:27:45;;;;;;;9.00;3.28;;;;;;;;;;5044047;28;20060;-66
2023/08/05 00:30:11;;;;;;;7.53;3.67;;;;;;;;;;5044549;28;20056;-66
2023/08/05 00:32:38;;;;;;;8.73;3.72;;;;;;;;;;5044138;28;20028;-66
2023/08/05 00:35:05;;;;;;;8.93;3.53;;;;;;;;;;5043385;28;20448;-66
2023/08/05 00:37:34;;;;;;;6.47;3.17;;;;;;;;;;5044651;28;20024;-66
2023/08/05 00:40:01;;;;;;;7.15;3.80;;;;;;;;;;5044478;28;20052;-62
2023/08/05 00:42:28;;;;;;;6.78;3.40;;;;;;;;;;5026900;28;20501;-62
2023/08/05 00:44:54;;;;;;;8.10;3.50;;;;;;;;;;5043570;28;20032;-62
2023/08/05 00:47:20;;;;;;;5.30;3.10;;;;;;;;;;5041896;28;20118;-62
2023/08/05 00:49:47;;;;;;;6.53;3.25;;;;;;;;;;5043388;28;20043;-62
2023/08/05 00:52:16;;;;;;;7.60;3.00;;;;;;;;;;5043452;28;20077;-62
2023/08/05 00:54:42;;;;;;;7.82;2.75;;;;;;;;;;5044251;28;20130;-62
2023/08/05 00:57:12;;;;;;;11.50;3.40;;;;;;;;;;5045119;28;20891;-62
2023/08/05 00:59:38;;;;;;;8.05;2.90;;;;;;;;;;5042966;28;20036;-62
2023/08/05 01:02:04;;;;;;;7.85;2.90;;;;;;;;;;5042388;28;20067;-62
2023/08/05 01:04:31;;;;;;;8.65;3.05;;;;;;;;;;5042456;28;20040;-62
2023/08/05 01:06:59;;;;;;;9.95;3.17;;;;;;;;;;5043461;28;20055;-62
2023/08/05 01:09:25;;;;;;;6.60;3.33;;;;;;;;;;5044295;28;20044;-62
2023/08/05 01:11:53;;;;;;;11.48;3.67;;;;;;;;;;5044362;28;20032;-62
2023/08/05 01:14:19;;;;;;;7.90;3.15;;;;;;;;;;5043849;28;20134;-62
2023/08/05 01:16:45;;;;;;;7.63;3.25;;;;;;;;;;5043274;28;20408;-62
2023/08/05 01:19:16;;;;;;;8.48;3.10;;;;;;;;;;5040591;28;20399;-62
2023/08/05 01:21:45;;;;;;;9.77;4.30;;;;;;;;;;5038286;28;20029;-62
2023/08/05 01:24:18;;;;;;;6.65;3.25;;;;;;;;;;5039294;28;20039;-62
2023/08/05 01:26:44;;;;;;;10.38;3.53;;;;;;;;;;5042688;28;20028;-62
2023/08/05 01:29:10;;;;;;;9.90;3.58;;;;;;;;;;5042060;28;21850;-62
2023/08/05 01:31:36;;;;;;;8.77;3.72;;;;;;;;;;5041989;28;20040;-62
2023/08/05 01:34:03;;;;;;;6.80;3.47;;;;;;;;;;5044200;28;20050;-62
2023/08/05 01:36:31;;;;;;;10.88;4.15;;;;;;;;;;5041085;28;20071;-62
2023/08/05 01:38:57;;;;;;;8.10;4.28;;;;;;;;;;5042702;28;20020;-62
2023/08/05 01:41:23;;;;;;;7.90;3.20;;;;;;;;;;5042653;28;20025;-63
2023/08/05 01:43:49;;;;;;;7.07;3.58;;;;;;;;;;5042910;28;20033;-62
2023/08/05 01:46:15;;;;;;;7.47;3.08;;;;;;;;;;5041959;28;20036;-62
2023/08/05 01:48:41;;;;;;;14.75;3.92;;;;;;;;;;5024724;28;21050;-62
2023/08/05 01:51:07;;;;;;;7.07;3.85;;;;;;;;;;5043425;28;20029;-62
2023/08/05 01:53:33;;;;;;;9.55;3.28;;;;;;;;;;5043041;28;20035;-62
2023/08/05 01:55:59;;;;;;;8.05;3.85;;;;;;;;;;5042349;28;20124;-63
2023/08/05 01:58:25;;;;;;;9.93;3.42;;;;;;;;;;5042488;28;20055;-62
2023/08/05 02:00:52;;;;;;;10.95;3.63;;;;;;;;;;5041437;28;20055;-62
2023/08/05 02:03:18;;;;;;;8.15;3.28;;;;;;;;;;5041233;28;21322;-62
2023/08/05 02:05:44;;;;;;;8.13;3.80;;;;;;;;;;5043759;28;20946;-62
2023/08/05 02:08:10;;;;;;;9.95;3.58;;;;;;;;;;5046647;28;20032;-62
2023/08/05 02:10:37;;;;;;;9.55;3.60;;;;;;;;;;5046738;28;20020;-62
2023/08/05 02:13:03;;;;;;;8.18;3.10;;;;;;;;;;5046245;28;20133;-62
2023/08/05 02:15:32;;;;;;;14.07;3.88;;;;;;;;;;5046347;28;21029;-62
2023/08/05 02:17:58;;;;;;;14.45;4.03;;;;;;;;;;5047293;28;20031;-62
2023/08/05 02:20:24;;;;;;;6.90;3.60;;;;;;;;;;5046282;28;20040;-62
2023/08/05 02:22:50;;;;;;;6.35;3.63;;;;;;;;;;5046431;28;20164;-62
2023/08/05 02:25:17;;;;;;;8.10;3.83;;;;;;;;;;5045460;28;20135;-62
2023/08/05 02:27:43;;;;;;;8.57;3.80;;;;;;;;;;5045205;28;20043;-62
2023/08/05 02:30:09;;;;;;;8.50;3.45;;;;;;;;;;5045494;28;20050;-62
2023/08/05 02:32:35;;;;;;;12.18;4.30;;;;;;;;;;5045470;28;20040;-62
2023/08/05 02:35:01;;;;;;;9.30;3.53;;;;;;;;;;5046755;28;20576;-62
2023/08/05 02:37:27;;;;;;;8.02;3.90;;;;;;;;;;5046744;28;20039;-62
2023/08/05 02:39:53;;;;;;;8.63;4.32;;;;;;;;;;5046191;28;20020;-62
2023/08/05 02:42:19;;;;;;;7.07;3.63;;;;;;;;;;5045901;28;20044;-62
2023/08/05 02:44:45;;;;;;;9.75;4.13;;;;;;;;;;5046177;28;21339;-62
2023/08/05 02:47:11;;;;;;;8.23;3.58;;;;;;;;;;5027366;28;20783;-62
2023/08/05 02:49:37;;;;;;;8.55;3.65;;;;;;;;;;5046654;28;20033;-62
2023/08/05 02:52:03;;;;;;;9.27;3.70;;;;;;;;;;5047228;28;20047;-62
2023/08/05 02:54:29;;;;;;;11.45;4.15;;;;;;;;;;5046286;28;20032;-62
2023/08/05 02:56:55;;;;;;;11.60;4.38;;;;;;;;;;5045868;28;20662;-62
2023/08/05 02:59:21;;;;;;;9.18;4.47;;;;;;;;;;5031832;28;20075;-62
2023/08/05 03:01:48;;;;;;;8.75;4.50;;;;;;;;;;5045575;28;21805;-62
2023/08/05 03:04:14;;;;;;;9.95;4.68;;;;;;;;;;5046513;28;20079;-62
2023/08/05 03:06:40;;;;;;;14.82;4.97;;;;;;;;;;5045649;28;20126;-62
2023/08/05 03:09:06;;;;;;;10.15;4.85;;;;;;;;;;5045428;28;21641;-62
2023/08/05 03:11:32;;;;;;;12.57;4.57;;;;;;;;;;5045805;28;21941;-62
2023/08/05 03:13:58;;;;;;;11.02;5.15;;;;;;;;;;5046234;28;20040;-62
2023/08/05 03:16:24;;;;;;;10.82;4.43;;;;;;;;;;5045125;28;20032;-62
2023/08/05 03:18:50;;;;;;;9.20;5.13;;;;;;;;;;5046241;28;20143;-62
2023/08/05 03:21:16;;;;;;;10.45;4.93;;;;;;;;;;5044958;28;20032;-62
2023/08/05 03:23:42;;;;;;;7.80;4.28;;;;;;;;;;5045557;28;21699;-62
2023/08/05 03:26:08;;;;;;;10.40;5.03;;;;;;;;;;5046603;28;20736;-62
2023/08/05 03:28:34;;;;;;;10.07;4.40;;;;;;;;;;5045918;28;20078;-62
2023/08/05 03:31:01;;;;;;;9.77;4.75;;;;;;;;;;5044223;28;20045;-62
2023/08/05 03:33:27;;;;;;;8.02;4.10;;;;;;;;;;5045628;28;20033;-62
2023/08/05 03:35:54;;;;;;;10.98;5.28;;;;;;;;;;5045383;28;20110;-62
2023/08/05 03:38:20;;;;;;;11.35;4.75;;;;;;;;;;5045012;28;20074;-62
2023/08/05 03:40:46;;;;;;;7.63;4.70;;;;;;;;;;5045850;28;20028;-62
2023/08/05 03:43:12;;;;;;;8.07;4.55;;;;;;;;;;5045237;28;20028;-62
2023/08/05 03:45:38;;;;;;;9.30;4.93;;;;;;;;;;5045448;28;20052;-62
2023/08/05 03:48:05;;;;;;;10.00;4.78;;;;;;;;;;5045155;28;20051;-62
2023/08/05 03:50:31;;;;;;;13.82;6.53;;;;;;;;;;5045457;28;20040;-62
2023/08/05 03:52:58;;;;;;;16.60;5.75;;;;;;;;;;5043565;28;20032;-62
2023/08/05 03:55:24;;;;;;;11.77;5.93;;;;;;;;;;5045050;28;20039;-62
2023/08/05 03:57:50;;;;;;;9.93;4.95;;;;;;;;;;5044780;28;20059;-62
2023/08/05 04:00:17;;;;;;;9.77;5.78;;;;;;;;;;5045080;28;20037;-62
2023/08/05 04:02:43;;;;;;;9.13;4.80;;;;;;;;;;5044840;28;20040;-62
2023/08/05 04:05:09;;;;;;;10.15;4.80;;;;;;;;;;5045415;28;20073;-62
2023/08/05 04:07:36;;;;;;;9.10;5.03;;;;;;;;;;5042945;28;20494;-62
2023/08/05 04:10:03;;;;;;;9.32;4.32;;;;;;;;;;5045029;28;20036;-62
2023/08/05 04:12:30;;;;;;;10.77;4.90;;;;;;;;;;5044795;28;20162;-62
2023/08/05 04:14:58;;;;;;;9.10;4.40;;;;;;;;;;5045458;28;20032;-63
2023/08/05 04:17:24;;;;;;;9.32;5.03;;;;;;;;;;5045220;28;20040;-62
2023/08/05 04:19:50;;;;;;;8.07;3.80;;;;;;;;;;5043016;28;20051;-62
2023/08/05 04:22:20;;;;;;;10.85;4.07;;;;;;;;;;5023190;28;20028;-63
2023/08/05 04:24:46;;;;;;;8.13;4.38;;;;;;;;;;5043173;28;20040;-62
2023/08/05 04:27:12;;;;;;;8.57;3.88;;;;;;;;;;5042560;28;20035;-62
2023/08/05 04:29:42;;;;;;;8.25;4.47;;;;;;;;;;5042291;28;20040;-62
2023/08/05 04:32:08;;;;;;;9.05;4.43;;;;;;;;;;5044634;28;21068;-62
2023/08/05 04:34:37;;;;;;;7.50;3.85;;;;;;;;;;5044110;28;20146;-62
2023/08/05 04:37:35;;;;;;;9.43;4.80;;;;;;;;;;5044166;28;20093;-62
2023/08/05 04:40:01;;;;;;;8.00;4.10;;;;;;;;;;5002729;28;20064;-62
2023/08/05 04:42:27;;;;;;;8.32;3.58;;;;;;;;;;5044430;28;20121;-62
2023/08/05 04:44:55;;;;;;;7.80;3.45;;;;;;;;;;5043477;28;20153;-62
2023/08/05 04:47:21;;;;;;;10.15;4.60;;;;;;;;;;5044684;28;20037;-62
2023/08/05 04:49:47;;;;;;;9.27;4.00;;;;;;;;;;5043125;28;20151;-62
2023/08/05 04:52:14;;;;;;;9.98;4.03;;;;;;;;;;5043546;28;20119;-62
2023/08/05 04:54:44;;;;;;;9.85;3.53;;;;;;;;;;5042874;28;20037;-62
2023/08/05 04:57:10;;;;;;;7.85;3.30;;;;;;;;;;5044863;28;20729;-62
2023/08/05 04:59:36;;;;;;;8.07;3.67;;;;;;;;;;5043009;28;20498;-62
2023/08/05 05:02:03;;;;;;;8.18;3.63;;;;;;;;;;5041947;28;20024;-62
2023/08/05 05:04:29;;;;;;;10.25;4.38;;;;;;;;;;5043689;28;20028;-62
2023/08/05 05:06:58;;;;;;;6.45;3.00;;;;;;;;;;5043582;28;20063;-62
2023/08/05 05:09:24;;;;;;;8.80;3.40;;;;;;;;;;5043866;28;20035;-62
2023/08/05 05:11:53;;;;;;;6.30;3.05;;;;;;;;;;5044493;28;20037;-62
2023/08/05 05:14:19;;;;;;;5.78;3.22;;;;;;;;;;5043489;28;20060;-62
2023/08/05 05:16:45;;;;;;;6.97;2.95;;;;;;;;;;5044254;28;21159;-62
2023/08/05 05:19:11;;;;;;;10.95;3.35;;;;;;;;;;5042975;28;20028;-62
2023/08/05 05:21:37;;;;;;;7.82;2.97;;;;;;;;;;5043809;28;20665;-62
2023/08/05 05:24:03;;;;;;;11.15;4.40;;;;;;;;;;5043355;28;20074;-62
2023/08/05 05:26:29;;;;;;;9.05;2.97;;;;;;;;;;5043851;28;20048;-62
2023/08/05 05:28:55;;;;;;;5.72;2.60;;;;;;;;;;5043388;28;20043;-62
2023/08/05 05:31:21;;;;;;;8.27;3.22;;;;;;;;;;5043460;28;20088;-62
2023/08/05 05:33:48;;;;;;;7.28;3.20;;;;;;;;;;5042980;28;20051;-62
2023/08/05 05:36:14;;;;;;;7.20;3.00;;;;;;;;;;5043955;28;20062;-62
2023/08/05 05:38:40;;;;;;;7.97;2.72;;;;;;;;;;5044046;28;20056;-62
2023/08/05 05:41:06;;;;;;;7.15;2.83;;;;;;;;;;5043523;28;20068;-62
2023/08/05 05:43:35;;;;;;;6.25;2.80;;;;;;;;;;5043565;28;20028;-62
2023/08/05 05:46:01;;;;;;;9.45;3.38;;;;;;;;;;5042952;28;20044;-62
2023/08/05 05:48:27;;;;;;;11.18;2.70;;;;;;;;;;5043856;28;20546;-62
2023/08/05 05:50:53;;;;;;;8.63;3.20;;;;;;;;;;5043629;28;20032;-62
2023/08/05 05:53:19;;;;;;;7.65;2.60;;;;;;;;;;5042565;28;20032;-62
2023/08/05 05:55:45;;;;;;;11.07;2.70;;;;;;;;;;5043749;28;20028;-62
2023/08/05 05:58:13;;;;;;;6.32;2.80;;;;;;;;;;5042927;28;20039;-62
2023/08/05 06:00:39;;;;;;;7.50;2.58;;;;;;;;;;5042689;28;20468;-62
2023/08/05 06:03:06;;;;;;;10.45;2.92;;;;;;;;;;5042210;28;20104;-62
2023/08/05 06:05:32;;;;;;;9.48;3.13;;;;;;;;;;5042810;28;20124;-62
2023/08/05 06:07:58;;;;;;;5.82;2.67;;;;;;;;;;5041703;28;20037;-62
2023/08/05 06:10:24;;;;;;;7.28;2.42;;;;;;;;;;5041175;28;20029;-62
2023/08/05 06:12:50;;;;;;;4.82;2.13;;;;;;;;;;5038575;28;20059;-62
2023/08/05 06:15:16;;;;;;;7.00;2.38;;;;;;;;;;5040069;28;20068;-62
2023/08/05 06:17:43;;;;;;;4.82;2.40;;;;;;;;;;5023884;28;20039;-62
2023/08/05 06:20:09;;;;;;;4.80;2.20;;;;;;;;;;5041452;28;20029;-62
2023/08/05 06:22:35;;;;;;;6.15;2.20;;;;;;;;;;5036939;28;20855;-62
2023/08/05 06:25:01;;;;;;;6.53;2.42;;;;;;;;;;5038631;28;20025;-62
2023/08/05 06:27:27;;;;;;;5.75;2.20;;;;;;;;;;5039744;28;20032;-62
2023/08/05 06:29:53;;;;;;;4.30;1.80;;;;;;;;;;5041939;28;20032;-62
2023/08/05 06:32:19;;;;;;;5.93;2.13;;;;;;;;;;5041310;28;20025;-62
2023/08/05 06:34:45;;;;;;;4.97;2.35;;;;;;;;;;5040005;28;20036;-62
2023/08/05 06:37:11;;;;;;;6.40;2.15;;;;;;;;;;5039542;28;20036;-62
2023/08/05 06:39:37;;;;;;;7.10;2.25;;;;;;;;;;5037211;28;20032;-62
2023/08/05 06:42:04;;;;;;;7.07;2.28;;;;;;;;;;5041225;28;20033;-62
2023/08/05 06:44:30;;;;;;;5.78;1.80;;;;;;;;;;5038044;28;20107;-62
2023/08/05 06:46:56;;;;;;;4.97;1.80;;;;;;;;;;5041779;28;20573;-62
2023/08/05 06:49:22;;;;;;;6.30;2.20;;;;;;;;;;5043151;28;21810;-62
2023/08/05 06:51:50;;;;;;;7.28;2.35;;;;;;;;;;5044675;28;20037;-62
2023/08/05 06:54:16;;;;;;;6.60;2.13;;;;;;;;;;5046424;28;20028;-62
2023/08/05 06:56:42;;;;;;;7.55;2.50;;;;;;;;;;5044195;28;20127;-62
2023/08/05 06:59:08;;;;;;;8.80;2.40;;;;;;;;;;5044959;28;20029;-62
2023/08/05 07:01:34;;;;;;;5.68;1.90;;;;;;;;;;5044253;28;20051;-62
2023/08/05 07:04:00;;;;;;;16.55;2.20;;;;;;;;;;5044498;28;20064;-62
2023/08/05 07:06:27;;;;;;;7.13;1.92;;;;;;;;;;5045006;28;20032;-62
2023/08/05 07:08:53;;;;;;;3.15;1.70;;;;;;;;;;5044341;28;20041;-62
2023/08/05 07:11:19;;;;;;;6.15;2.00;;;;;;;;;;5044201;28;20024;-62
2023/08/05 07:13:45;;;;;;;4.70;1.40;;;;;;;;;;5045226;28;20264;-62
2023/08/05 07:16:11;;;;;;;9.15;2.28;;;;;;;;;;5043528;28;20102;-62
2023/08/05 07:18:37;;;;;;;5.00;1.80;;;;;;;;;;5045719;28;20115;-63
2023/08/05 07:21:03;;;;;;;10.25;2.70;;;;;;;;;;5044032;28;20510;-62
2023/08/05 07:23:32;;;;;;;5.65;2.28;;;;;;;;;;5039327;28;20036;-62
2023/08/05 07:26:02;;;;;;;5.90;2.30;;;;;;;;;;5022002;28;20075;-62
2023/08/05 07:28:29;;;;;;;6.13;2.33;;;;;;;;;;5025423;28;20043;-62
2023/08/05 07:31:05;;;;;;;5.03;1.92;;;;;;;;;;5006410;28;20097;-62
2023/08/05 07:33:32;;;;;;;5.75;2.13;;;;;;;;;;5042786;28;20036;-62
2023/08/05 07:35:58;;;;;;;5.88;1.88;;;;;;;;;;5042605;28;20036;-62
2023/08/05 07:38:28;;;;;;;4.63;1.70;;;;;;;;;;5045073;28;20151;-62
2023/08/05 07:40:55;;;;;;;4.05;1.83;;;;;;;;;;5043648;28;20028;-62
2023/08/05 07:43:24;;;;;;;4.75;1.90;;;;;;;;;;5042828;28;20159;-62
2023/08/05 07:45:51;;;;;;;6.97;2.22;;;;;;;;;;5043537;28;20503;-62
2023/08/05 07:48:17;;;;;;;5.63;2.28;;;;;;;;;;5042184;28;20020;-62
2023/08/05 07:50:43;;;;;;;4.80;1.83;;;;;;;;;;5041208;28;20718;-62
2023/08/05 07:53:09;;;;;;;6.65;2.60;;;;;;;;;;5042595;28;20040;-62
2023/08/05 07:55:37;;;;;;;7.10;2.25;;;;;;;;;;5041980;28;21817;-62
2023/08/05 07:58:04;;;;;;;4.35;1.65;;;;;;;;;;5042561;28;20024;-62
2023/08/05 08:00:30;;;;;;;6.22;2.15;;;;;;;;;;5024740;28;20541;-62
2023/08/05 08:02:56;;;;;;;4.57;2.03;;;;;;;;;;5041179;28;20055;-62
2023/08/05 08:05:24;;;;;;;3.80;1.70;;;;;;;;;;5047098;28;20137;-62
2023/08/05 08:07:50;;;;;;;6.93;2.28;;;;;;;;;;5051535;28;20035;-62
2023/08/05 08:10:17;;;;;;;4.47;1.92;;;;;;;;;;5052113;28;20024;-62
2023/08/05 08:12:43;;;;;;;5.95;2.15;;;;;;;;;;5052919;28;21814;-62
2023/08/05 08:15:10;;;;;;;5.03;1.70;;;;;;;;;;5051683;28;20033;-62
2023/08/05 08:17:36;;;;;;;6.00;1.85;;;;;;;;;;5050926;28;20040;-62
2023/08/05 08:20:02;;;;;;;8.93;2.35;;;;;;;;;;5051680;28;20035;-62
2023/08/05 08:22:29;;;;;;;8.15;2.30;;;;;;;;;;5049368;28;20621;-62
2023/08/05 08:24:55;;;;;;;7.75;2.20;;;;;;;;;;5049122;28;20516;-62
2023/08/05 08:27:21;;;;;;;4.15;1.80;;;;;;;;;;5032074;28;21700;-62
2023/08/05 08:29:47;;;;;;;9.57;2.28;;;;;;;;;;5050959;28;20668;-62
2023/08/05 08:32:13;;;;;;;6.10;1.90;;;;;;;;;;5052173;28;20471;-62
2023/08/05 08:34:39;;;;;;;5.78;2.33;;;;;;;;;;5048090;28;20165;-62
2023/08/05 08:37:05;;;;;;;5.65;2.15;;;;;;;;;;5049571;28;20483;-62
2023/08/05 08:39:31;;;;;;;5.75;1.63;;;;;;;;;;5050130;28;20028;-62
2023/08/05 08:41:59;;;;;;;5.00;1.80;;;;;;;;;;5050120;28;20040;-63
2023/08/05 08:44:27;;;;;;;4.90;2.28;;;;;;;;;;5047164;28;20031;-62
2023/08/05 08:46:54;;;;;;;6.40;2.22;;;;;;;;;;5048862;28;20078;-62
2023/08/05 08:49:20;;;;;;;5.88;2.05;;;;;;;;;;5049989;28;20240;-62
2023/08/05 08:51:48;;;;;;;5.00;2.05;;;;;;;;;;5050415;28;20042;-62
2023/08/05 08:54:14;;;;;;;4.65;1.75;;;;;;;;;;5050815;28;20115;-62
2023/08/05 08:56:40;;;;;;;5.75;1.80;;;;;;;;;;5049664;28;20039;-62
2023/08/05 08:59:07;;;;;;;6.07;2.22;;;;;;;;;;5050450;28;20063;-62
2023/08/05 09:01:34;;;;;;;7.22;2.25;;;;;;;;;;5050639;28;20029;-62
2023/08/05 09:04:01;;;;;;;7.20;1.90;;;;;;;;;;5047799;28;20825;-62
2023/08/05 09:06:27;;;;;;;5.57;2.33;;;;;;;;;;5048456;28;20063;-62
2023/08/05 09:08:53;;;;;;;6.05;1.70;;;;;;;;;;5050014;28;20074;-62
2023/08/05 09:11:19;;;;;;;2.80;1.33;;;;;;;;;;5048996;28;20147;-62
2023/08/05 09:13:46;;;;;;;4.50;1.65;;;;;;;;;;5048986;28;20086;-62
2023/08/05 09:16:15;;;;;;;5.05;1.95;;;;;;;;;;5048725;28;20040;-62
2023/08/05 09:18:44;;;;;;;4.82;1.88;;;;;;;;;;5050397;28;21069;-62
2023/08/05 09:21:11;;;;;;;4.43;1.77;;;;;;;;;;5051209;28;20054;-62
2023/08/05 09:23:46;;;;;;;7.85;1.90;;;;;;;;;;5037311;28;20066;-62
2023/08/05 09:26:13;;;;;;;3.50;1.63;;;;;;;;;;5050868;28;20052;-62
2023/08/05 09:28:39;;;;;;;5.95;1.75;;;;;;;;;;5050257;28;20029;-63
2023/08/05 09:31:15;;;;;;;3.97;1.90;;;;;;;;;;5050754;28;20032;-62
2023/08/05 09:33:42;;;;;;;3.83;1.67;;;;;;;;;;5051672;28;20119;-63
2023/08/05 09:36:08;;;;;;;3.78;1.60;;;;;;;;;;5049341;28;21254;-62
2023/08/05 09:38:34;;;;;;;4.05;1.50;;;;;;;;;;5050912;28;20813;-63
2023/08/05 09:41:01;;;;;;;6.03;1.70;;;;;;;;;;5050413;28;20581;-62
2023/08/05 09:43:31;;;;;;;4.10;1.95;;;;;;;;;;5050249;28;20506;-63
2023/08/05 09:45:57;;;;;;;5.07;1.88;;;;;;;;;;5048782;28;20032;-62
2023/08/05 09:48:24;;;;;;;3.10;1.42;;;;;;;;;;5050604;28;20032;-63
2023/08/05 09:50:51;;;;;;;4.63;1.52;;;;;;;;;;5051535;28;20083;-62
2023/08/05 09:53:19;;;;;;;4.78;1.67;;;;;;;;;;5049552;28;20039;-63
2023/08/05 09:55:45;;;;;;;3.72;1.35;;;;;;;;;;5050722;28;21857;-62
2023/08/05 09:58:13;;;;;;;2.38;1.20;;;;;;;;;;5049052;28;20028;-63
2023/08/05 10:00:40;;;;;;;3.15;1.35;;;;;;;;;;5050684;28;20032;-62
2023/08/05 10:03:13;;;;;;;3.92;1.40;;;;;;;;;;5028692;28;20069;-63
2023/08/05 10:05:41;;;;;;;3.30;1.57;;;;;;;;;;5028476;28;21117;-62
2023/08/05 10:08:08;;;;;;;4.20;1.50;;;;;;;;;;5030551;28;20110;-63
2023/08/05 10:10:35;;;;;;;3.78;1.80;;;;;;;;;;5028516;28;20045;-63
2023/08/05 10:13:04;;;;;;;7.75;1.65;;;;;;;;;;5032209;28;20043;-62
2023/08/05 10:15:32;;;;;;;3.35;1.73;;;;;;;;;;5030430;28;20036;-63
2023/08/05 10:18:01;;;;;;;3.38;1.48;;;;;;;;;;5031347;28;20048;-62
2023/08/05 10:20:34;;;;;;;4.75;1.73;;;;;;;;;;5028339;28;20043;-63
2023/08/05 10:23:02;;;;;;;4.15;1.50;;;;;;;;;;5029357;28;20042;-63
2023/08/05 10:25:40;;;;;;;4.05;1.48;;;;;;;;;;5030649;28;20029;-62
2023/08/05 10:28:07;;;;;;;3.70;1.65;;;;;;;;;;5034114;28;20071;-62
2023/08/05 10:30:40;;;;;;;4.03;1.45;;;;;;;;;;5035643;28;20037;-62
2023/08/05 10:33:06;;;;;;;4.45;1.70;;;;;;;;;;5031355;28;20028;-62
2023/08/05 10:35:38;;;;;;;4.40;1.55;;;;;;;;;;5034134;28;20036;-62
2023/08/05 10:38:08;;;;;;;3.72;1.30;;;;;;;;;;5032422;28;20108;-63
2023/08/05 10:40:45;;;;;;;4.43;1.45;;;;;;;;;;5032156;28;20098;-62
2023/08/05 10:43:11;;;;;;;3.30;1.30;;;;;;;;;;5032831;28;20483;-62
2023/08/05 10:45:42;;;;;;;4.55;1.27;;;;;;;;;;5033773;28;20078;-62
2023/08/05 10:48:10;;;;;;;4.10;1.40;;;;;;;;;;5033218;28;20399;-62
2023/08/05 10:50:39;;;;;;;3.35;1.33;;;;;;;;;;5033439;28;20043;-62
2023/08/05 10:53:07;;;;;;;5.22;1.60;;;;;;;;;;5033474;28;20040;-62
2023/08/05 10:55:44;;;;;;;3.90;1.80;;;;;;;;;;5033849;28;20040;-62
2023/08/05 10:58:10;;;;;;;3.30;1.33;;;;;;;;;;5034018;28;20060;-61
2023/08/05 11:00:40;;;;;;;3.75;1.50;;;;;;;;;;5033738;28;20071;-62
2023/08/05 11:03:23;;;;;;;7.38;1.63;;;;;;;;;;5042273;28;20189;-63
2023/08/05 11:05:49;;;;;;;4.18;1.50;;;;;;;;;;5053060;28;20162;-63
2023/08/05 11:08:22;;;;;;;6.65;1.70;;;;;;;;;;5051722;28;20074;-62
2023/08/05 11:10:51;;;;;;;4.30;1.52;;;;;;;;;;5052855;28;21018;-62
2023/08/05 11:13:17;;;;;;;5.20;1.50;;;;;;;;;;5052350;28;20047;-62
2023/08/05 11:16:01;;;;;;;4.03;1.40;;;;;;;;;;5051764;28;20376;-63
2023/08/05 11:18:27;;;;;;;4.40;1.80;;;;;;;;;;5052275;28;20563;-62
2023/08/05 11:20:54;;;;;;;3.95;1.60;;;;;;;;;;5053310;28;20028;-63
2023/08/05 11:23:20;;;;;;;5.68;1.73;;;;;;;;;;5052536;28;20420;-62
2023/08/05 11:25:46;;;;;;;4.50;1.52;;;;;;;;;;5053400;28;20032;-62
2023/08/05 11:28:12;;;;;;;5.82;1.48;;;;;;;;;;5050991;28;20024;-62
2023/08/05 11:30:41;;;;;;;4.50;1.80;;;;;;;;;;5052868;28;20127;-62
2023/08/05 11:33:07;;;;;;;3.60;1.67;;;;;;;;;;5051959;28;20043;-63
2023/08/05 11:35:33;;;;;;;6.30;1.80;;;;;;;;;;5050016;28;20798;-63
2023/08/05 11:37:59;;;;;;;3.70;1.25;;;;;;;;;;5050893;28;20488;-62
2023/08/05 11:40:25;;;;;;;3.72;1.55;;;;;;;;;;5051725;28;21043;-62
2023/08/05 11:42:55;;;;;;;4.97;1.77;;;;;;;;;;5051006;28;20024;-62
2023/08/05 11:45:21;;;;;;;5.00;1.60;;;;;;;;;;5052011;28;20058;-63
2023/08/05 11:47:47;;;;;;;3.35;1.58;;;;;;;;;;5051608;28;20043;-62
2023/08/05 11:50:13;;;;;;;4.70;1.77;;;;;;;;;;5052674;28;20036;-62
2023/08/05 11:52:39;;;;;;;6.50;1.85;;;;;;;;;;5053573;28;20036;-62
2023/08/05 11:55:07;;;;;;;3.30;1.95;;;;;;;;;;5053060;28;20044;-63
2023/08/05 11:57:33;;;;;;;8.00;2.17;;;;;;;;;;5052306;28;20025;-62
2023/08/05 12:00:09;;;;;;;3.80;1.42;;;;;;;;;;5052979;28;21932;-63
2023/08/05 12:02:36;;;;;;;3.60;1.60;;;;;;;;;;5051566;28;20218;-62
2023/08/05 12:05:03;;;;;;;4.05;1.52;;;;;;;;;;5052075;28;20651;-62
2023/08/05 12:07:29;;;;;;;3.05;1.75;;;;;;;;;;5033472;28;20027;-63
2023/08/05 12:10:07;;;;;;;5.70;2.30;;;;;;;;;;5052419;28;20467;-63
2023/08/05 12:12:33;;;;;;;7.07;1.90;;;;;;;;;;5052156;28;21013;-62
2023/08/05 12:15:19;;;;;;;3.25;1.83;;;;;;;;;;5051447;28;20044;-62
2023/08/05 12:17:47;;;;;;;5.63;2.00;;;;;;;;;;5051609;28;20166;-62
2023/08/05 12:20:15;;;;;;;5.07;2.22;;;;;;;;;;5051649;28;20043;-62
2023/08/05 12:22:44;;;;;;;6.35;2.38;;;;;;;;;;5049798;28;20028;-62
2023/08/05 12:25:10;;;;;;;4.32;2.05;;;;;;;;;;5050901;28;20037;-62
2023/08/05 12:27:36;;;;;;;7.55;2.70;;;;;;;;;;5050358;28;20045;-62
2023/08/05 12:30:03;;;;;;;5.70;2.67;;;;;;;;;;5051840;28;20058;-62
2023/08/05 12:32:29;;;;;;;5.15;2.40;;;;;;;;;;5051324;28;20464;-62
2023/08/05 12:34:55;;;;;;;6.05;2.60;;;;;;;;;;5051973;28;20041;-62
2023/08/05 12:37:23;;;;;;;4.13;2.20;;;;;;;;;;5051328;28;20037;-62
2023/08/05 12:39:49;;;;;;;4.72;2.25;;;;;;;;;;5051474;28;20036;-62
2023/08/05 12:42:15;;;;;;;5.50;2.45;;;;;;;;;;5051277;28;20676;-62
2023/08/05 12:44:41;;;;;;;5.05;2.40;;;;;;;;;;5050430;28;20055;-62
2023/08/05 12:47:08;;;;;;;4.13;2.13;;;;;;;;;;5051326;28;20047;-62
2023/08/05 12:49:36;;;;;;;5.38;2.30;;;;;;;;;;5049359;28;20032;-62
2023/08/05 12:52:02;;;;;;;5.57;2.95;;;;;;;;;;5051650;28;20037;-62
2023/08/05 12:54:28;;;;;;;5.90;2.40;;;;;;;;;;5050959;28;20060;-63
2023/08/05 12:56:54;;;;;;;5.18;2.42;;;;;;;;;;5051626;28;20041;-63
2023/08/05 12:59:20;;;;;;;5.90;2.75;;;;;;;;;;5051742;28;20036;-62
2023/08/05 13:01:46;;;;;;;6.65;3.17;;;;;;;;;;5051569;28;20029;-63
2023/08/05 13:04:12;;;;;;;7.18;3.60;;;;;;;;;;5050802;28;20041;-62
2023/08/05 13:06:38;;;;;;;8.95;3.80;;;;;;;;;;5050258;28;20037;-62
2023/08/05 13:09:04;;;;;;;6.40;3.22;;;;;;;;;;5051690;28;20036;-62
2023/08/05 13:11:30;;;;;;;6.55;3.88;;;;;;;;;;5051596;28;20185;-62
2023/08/05 13:13:56;;;;;;;6.53;3.58;;;;;;;;;;5051422;28;20116;-62
2023/08/05 13:16:22;;;;;;;8.13;4.10;;;;;;;;;;5051568;28;20025;-63
2023/08/05 13:18:48;;;;;;;7.50;4.40;;;;;;;;;;5051034;28;20024;-62
2023/08/05 13:21:14;;;;;;;7.35;4.55;;;;;;;;;;5050004;28;20047;-62
2023/08/05 13:23:40;;;;;;;6.70;4.82;;;;;;;;;;5051027;28;20038;-63
2023/08/05 13:26:06;;;;;;;8.90;5.00;;;;;;;;;;5050080;28;20115;-62
2023/08/05 13:28:32;;;;;;;9.18;5.63;;;;;;;;;;5049352;28;20050;-63
2023/08/05 13:31:02;;;;;;;8.82;5.53;;;;;;;;;;5050632;28;20040;-62
2023/08/05 13:33:28;;;;;;;10.02;5.55;;;;;;;;;;5052114;28;20040;-62
2023/08/05 13:35:54;;;;;;;8.57;6.03;;;;;;;;;;5050437;28;20093;-62
2023/08/05 13:38:21;;;;;;;8.57;6.80;;;;;;;;;;5051572;28;20115;-62
2023/08/05 13:40:53;;;;;;;8.75;6.60;;;;;;;;;;5051126;28;20033;-62
2023/08/05 13:43:20;;;;;;;9.57;6.63;;;;;;;;;;5051327;28;20510;-62
2023/08/05 13:45:49;;;;;;;9.48;7.00;;;;;;;;;;5048404;28;20554;-62
2023/08/05 13:48:15;;;;;;;10.27;7.68;;;;;;;;;;5048612;28;20032;-62
2023/08/05 13:50:41;;;;;;;10.25;6.93;;;;;;;;;;5050028;28;20411;-62
2023/08/05 13:53:07;;;;;;;10.10;7.15;;;;;;;;;;5049145;28;20060;-62
2023/08/05 13:55:33;;;;;;;10.60;8.00;;;;;;;;;;5048960;28;20031;-62
2023/08/05 13:58:02;;;;;;;10.05;7.65;;;;;;;;;;5050069;28;20036;-62
2023/08/05 14:00:28;;;;;;;10.05;7.45;;;;;;;;;;5052433;28;20024;-62
2023/08/05 14:02:54;;;;;;;10.27;7.70;;;;;;;;;;5054559;28;20167;-62
2023/08/05 14:05:20;;;;;;;13.18;8.30;;;;;;;;;;5054655;28;20163;-62
2023/08/05 14:07:48;;;;;;;11.02;8.15;;;;;;;;;;5053184;28;20056;-62
2023/08/05 14:10:14;;;;;;;10.13;8.15;;;;;;;;;;5052220;28;20045;-62
2023/08/05 14:12:40;;;;;;;10.43;7.95;;;;;;;;;;5053793;28;20032;-62
2023/08/05 14:15:10;;;;;;;12.25;8.80;;;;;;;;;;5053181;28;20029;-62
2023/08/05 14:17:36;;;;;;;10.20;8.07;;;;;;;;;;5052935;28;20036;-62
2023/08/05 14:20:04;;;;;;;12.15;7.45;;;;;;;;;;5053154;28;20040;-62
2023/08/05 14:22:30;;;;;;;13.40;8.10;;;;;;;;;;5054833;28;20044;-62
2023/08/05 14:24:58;;;;;;;9.20;7.57;;;;;;;;;;5054969;28;20029;-62
2023/08/05 14:27:24;;;;;;;9.10;7.65;;;;;;;;;;5054224;28;20032;-62
2023/08/05 14:29:54;;;;;;;8.77;7.80;;;;;;;;;;5054870;28;20435;-62
2023/08/05 14:32:20;;;;;;;10.40;7.80;;;;;;;;;;5053902;28;20118;-62
2023/08/05 14:34:46;;;;;;;10.15;8.15;;;;;;;;;;5054134;28;20090;-62
2023/08/05 14:37:12;;;;;;;6.95;4.90;;;;;;;;;;5052521;28;20033;-62
2023/08/05 14:39:38;;;;;;;3.78;2.10;;;;;;;;;;5051468;28;20118;-62